createdAt,value
2018-06-11T04:55:33.207Z,59.96
2018-06-11T04:58:01.296Z,60.86
2018-06-11T05:00:29.660Z,66.43
2018-06-11T05:02:58.453Z,70.96
2018-06-11T05:05:26.547Z,72.30
2018-06-11T05:07:54.972Z,73.75
2018-06-11T05:10:23.455Z,79.68
2018-06-11T05:12:51.580Z,81.09
2018-06-11T05:15:19.732Z,78.92
2018-06-11T05:17:47.799Z,72.98
2018-06-11T05:20:15.922Z,70.62
2018-06-11T05:29:16.361Z,69.06
2018-06-11T05:31:44.500Z,67.15
2018-06-11T05:34:13.213Z,68.23
2018-06-11T05:36:41.417Z,65.70
2018-06-11T05:39:09.693Z,64.86
2018-06-11T05:41:37.916Z,64.96
2018-06-11T05:44:06.887Z,64.01
2018-06-11T05:46:35.125Z,61.42
2018-06-11T05:49:03.277Z,58.81
2018-06-11T05:51:31.429Z,59.18
2018-06-11T05:53:59.825Z,56.97
2018-06-11T05:56:28.384Z,55.76
2018-06-11T05:58:56.522Z,54.85
2018-06-11T06:01:25.105Z,55.83
2018-06-11T06:03:53.200Z,56.83
2018-06-11T06:06:21.565Z,60.22
2018-06-11T06:08:49.819Z,66.40
2018-06-11T06:11:17.877Z,68.81
2018-06-11T06:13:45.964Z,73.18
2018-06-11T06:16:14.308Z,70.82
2018-06-11T06:18:42.715Z,66.96
2018-06-11T06:21:11.312Z,64.91
2018-06-11T06:23:40.368Z,60.46
2018-06-11T06:26:08.849Z,61.48
2018-06-11T06:28:37.141Z,61.05
2018-06-11T06:31:05.345Z,61.45
2018-06-11T06:33:33.403Z,61.93
2018-06-11T06:36:01.905Z,64.61
2018-06-11T06:38:30.009Z,63.79
2018-06-11T06:40:58.098Z,64.21
2018-06-11T06:43:27.174Z,64.57
2018-06-11T06:45:55.289Z,67.16
2018-06-11T06:48:23.539Z,68.31
2018-06-11T06:50:51.634Z,70.91
2018-06-11T06:53:20.117Z,72.12
2018-06-11T06:55:48.284Z,72.11
2018-06-11T06:58:16.407Z,71.02
2018-06-11T07:00:44.472Z,73.02
2018-06-11T07:03:12.560Z,71.46
2018-06-11T07:05:40.632Z,72.67
2018-06-11T07:08:08.850Z,73.42
2018-06-11T07:10:36.959Z,73.50
2018-06-11T07:13:05.039Z,73.67
2018-06-11T07:15:33.250Z,74.27
2018-06-11T07:18:01.487Z,75.00
2018-06-11T07:20:29.623Z,74.11
2018-06-11T07:22:58.537Z,74.26
2018-06-11T07:25:26.594Z,70.83
2018-06-11T07:27:54.780Z,69.55
2018-06-11T07:30:22.871Z,68.84
2018-06-11T07:32:50.980Z,68.90
2018-06-11T07:35:19.076Z,68.26
2018-06-11T07:37:47.312Z,66.14
2018-06-11T07:40:15.447Z,66.19
2018-06-11T07:42:43.680Z,64.56
2018-06-11T07:45:11.751Z,65.41
2018-06-11T07:47:39.841Z,67.13
2018-06-11T07:50:07.900Z,67.25
2018-06-11T07:52:36.135Z,65.46
2018-06-11T07:55:04.517Z,67.53
2018-06-11T07:57:32.621Z,69.80
2018-06-11T08:00:00.733Z,71.01
2018-06-11T08:02:29.508Z,73.30
2018-06-11T08:04:57.673Z,73.52
2018-06-11T08:07:25.792Z,74.53
2018-06-11T08:09:54.080Z,75.21
2018-06-11T08:12:22.420Z,75.09
2018-06-11T08:14:50.517Z,74.36
2018-06-11T08:17:18.669Z,75.61
2018-06-11T08:19:46.753Z,75.23
2018-06-11T08:22:14.827Z,75.05
2018-06-11T08:24:43.141Z,74.57
2018-06-11T08:27:11.237Z,73.60
2018-06-11T08:29:39.357Z,73.19
2018-06-11T08:32:07.706Z,72.62
2018-06-11T08:34:35.860Z,71.98
2018-06-11T08:37:04.211Z,70.74
2018-06-11T08:39:32.296Z,70.72
2018-06-11T08:42:00.637Z,71.22
2018-06-11T08:44:28.859Z,73.07
2018-06-11T08:46:56.953Z,69.70
2018-06-11T08:49:25.242Z,70.38
2018-06-11T08:51:53.508Z,71.19
2018-06-11T08:54:21.801Z,71.65
2018-06-11T08:56:49.980Z,69.19
2018-06-11T08:59:18.373Z,69.82
2018-06-11T09:01:46.791Z,69.11
2018-06-11T09:04:14.892Z,70.30
2018-06-11T09:06:43.124Z,70.69
2018-06-11T09:09:11.336Z,66.80
2018-06-11T09:11:39.724Z,65.42
2018-06-11T09:14:07.903Z,67.93
2018-06-11T09:16:36.029Z,64.23
2018-06-11T09:19:04.118Z,66.42
2018-06-11T09:21:32.223Z,64.78
2018-06-11T09:24:00.452Z,67.57
2018-06-11T09:26:28.764Z,67.13
2018-06-11T09:28:57.091Z,66.67
2018-06-11T09:31:25.931Z,68.64
2018-06-11T09:33:54.037Z,68.52
2018-06-11T09:36:22.314Z,66.14
2018-06-11T09:38:50.556Z,65.65
2018-06-11T09:41:18.935Z,66.88
2018-06-11T09:43:47.696Z,67.07
2018-06-11T09:46:15.767Z,64.78
2018-06-11T09:48:44.267Z,64.93
2018-06-11T09:51:13.372Z,63.91
2018-06-11T09:53:41.468Z,63.51
2018-06-11T09:56:09.574Z,64.60
2018-06-11T09:58:37.802Z,63.92
2018-06-11T10:01:05.918Z,62.38
2018-06-11T10:03:34.019Z,61.73
2018-06-11T10:06:02.873Z,61.88
2018-06-11T10:08:31.003Z,61.01
2018-06-11T10:10:59.356Z,60.70
2018-06-11T10:13:27.493Z,59.66
2018-06-11T10:15:55.577Z,58.95
2018-06-11T10:18:23.729Z,59.23
2018-06-11T10:20:51.852Z,62.74
2018-06-11T10:23:20.008Z,60.48
2018-06-11T10:25:48.132Z,59.40
2018-06-11T10:28:16.219Z,59.63
2018-06-11T10:30:45.444Z,60.06
2018-06-11T10:33:13.649Z,60.43
2018-06-11T10:35:42.041Z,59.57
2018-06-11T10:38:10.369Z,60.56
2018-06-11T10:40:38.565Z,59.27
2018-06-11T10:43:06.735Z,57.19
2018-06-11T10:45:34.905Z,58.53
2018-06-11T10:48:03.191Z,58.87
2018-06-11T10:50:31.535Z,59.00
2018-06-11T10:52:59.857Z,58.81
2018-06-11T10:55:28.155Z,60.06
2018-06-11T10:57:56.481Z,60.88
2018-06-11T11:00:24.542Z,62.65
2018-06-11T11:02:52.624Z,62.78
2018-06-11T11:05:20.777Z,61.78
2018-06-11T11:07:48.861Z,65.09
2018-06-11T11:10:16.943Z,63.12
2018-06-11T11:12:45.060Z,65.92
2018-06-11T11:15:13.144Z,67.95
2018-06-11T11:17:41.256Z,67.20
2018-06-11T11:20:09.425Z,69.14
2018-06-11T11:22:37.504Z,68.01
2018-06-11T11:25:05.624Z,66.62
2018-06-11T11:27:33.760Z,66.33
2018-06-11T11:30:01.851Z,66.14
2018-06-11T11:32:30.236Z,65.70
2018-06-11T11:34:58.396Z,64.53
2018-06-11T11:37:26.732Z,65.15
2018-06-11T11:39:55.106Z,65.82
2018-06-11T11:42:23.268Z,67.80
2018-06-11T11:44:51.352Z,66.97
2018-06-11T11:47:19.452Z,67.07
2018-06-11T11:49:47.576Z,66.00
2018-06-11T11:52:16.439Z,66.48
2018-06-11T11:54:44.512Z,65.46
2018-06-11T11:57:12.764Z,65.32
2018-06-11T11:59:41.128Z,66.97
2018-06-11T12:02:09.283Z,66.92
2018-06-11T12:04:37.605Z,67.83
2018-06-11T12:07:06.220Z,67.03
2018-06-11T12:09:34.287Z,68.40
2018-06-11T12:12:02.651Z,68.36
2018-06-11T12:14:30.763Z,68.11
2018-06-11T12:16:58.846Z,68.09
2018-06-11T12:19:27.247Z,64.84
2018-06-11T12:21:55.516Z,67.19
2018-06-11T12:24:23.809Z,68.91
2018-06-11T12:26:51.987Z,71.32
2018-06-11T12:29:20.627Z,72.18
2018-06-11T12:31:48.908Z,73.38
2018-06-11T12:34:17.000Z,73.11
2018-06-11T12:36:45.092Z,73.76
2018-06-11T12:39:13.392Z,72.05
2018-06-11T12:41:41.480Z,71.01
2018-06-11T12:44:09.553Z,71.85
2018-06-11T12:46:38.200Z,71.82
2018-06-11T12:49:06.389Z,70.95
2018-06-11T12:51:34.679Z,68.95
2018-06-11T12:54:02.870Z,66.88
2018-06-11T12:56:31.237Z,66.48
2018-06-11T12:58:59.508Z,65.19
2018-06-11T13:01:27.593Z,63.07
2018-06-11T13:03:55.647Z,62.08
2018-06-11T13:06:23.743Z,65.50
2018-06-11T13:08:51.831Z,63.04
2018-06-11T13:11:19.956Z,59.57
2018-06-11T13:13:48.071Z,61.96
2018-06-11T13:16:16.382Z,59.83
2018-06-11T13:18:44.565Z,60.08
2018-06-11T13:21:12.892Z,61.20
2018-06-11T13:23:41.112Z,62.68
2018-06-11T13:26:09.596Z,64.05
2018-06-11T13:28:38.208Z,64.09
2018-06-11T13:31:06.273Z,62.48
2018-06-11T13:33:34.400Z,62.58
2018-06-11T13:36:02.449Z,64.01
2018-06-11T13:38:30.531Z,62.09
2018-06-11T13:40:58.590Z,59.52
2018-06-11T13:43:26.664Z,60.22
2018-06-11T13:45:55.044Z,61.00
2018-06-11T13:48:23.175Z,60.83
2018-06-11T13:50:51.250Z,61.54
2018-06-11T13:53:19.487Z,62.78
2018-06-11T13:55:47.670Z,63.42
2018-06-11T13:58:15.786Z,66.19
2018-06-11T14:00:43.845Z,66.01
2018-06-11T14:03:12.069Z,66.04
2018-06-11T14:05:41.165Z,66.07
2018-06-11T14:08:09.273Z,66.72
2018-06-11T14:10:37.327Z,68.63
2018-06-11T14:13:05.707Z,69.37
2018-06-11T14:15:33.793Z,69.77
2018-06-11T14:18:01.902Z,69.39
2018-06-11T14:20:30.039Z,71.66
2018-06-11T14:22:58.136Z,71.31
2018-06-11T14:25:26.235Z,71.08
2018-06-11T14:27:54.823Z,72.33
2018-06-11T14:30:23.118Z,72.28
2018-06-11T14:32:51.456Z,72.70
2018-06-11T14:35:19.667Z,72.80
2018-06-11T14:37:47.740Z,73.35
2018-06-11T14:40:15.839Z,73.43
2018-06-11T14:42:44.136Z,74.69
2018-06-11T14:45:12.540Z,74.00
2018-06-11T14:47:40.615Z,76.36
2018-06-11T14:50:08.685Z,76.73
2018-06-11T14:52:36.796Z,77.45
2018-06-11T14:55:04.880Z,77.96
2018-06-11T14:57:32.956Z,76.90
2018-06-11T15:00:01.120Z,74.64
2018-06-11T15:02:29.136Z,74.25
2018-06-11T15:04:57.300Z,75.65
2018-06-11T15:08:15.076Z,73.30
2018-06-11T15:10:43.571Z,73.75
2018-06-11T15:13:11.644Z,71.16
2018-06-11T15:15:39.767Z,72.05
2018-06-11T15:18:07.863Z,72.69
2018-06-11T15:29:45.136Z,76.21
2018-06-11T15:32:13.336Z,77.05
2018-06-11T15:34:41.618Z,76.41
2018-06-11T15:37:09.963Z,76.55
2018-06-11T19:25:11.291Z,94.39
2018-06-11T20:32:00.836Z,95.54
2018-06-11T20:34:29.067Z,95.89
2018-06-11T20:36:57.402Z,95.53
2018-06-11T21:22:42.556Z,92.88
2018-06-11T21:25:11.173Z,92.54
2018-06-11T21:27:39.917Z,93.48
2018-06-11T21:36:13.507Z,95.05
2018-06-11T21:38:43.431Z,94.86
2018-06-11T21:47:16.780Z,95.40
2018-06-11T21:49:45.688Z,95.51
